AAL223 KLAX-KDFW
Flight info
| Callsign | AAL223 |
|---|---|
| Flight time | N/A |
| Altitude | 39000 |
| Route | DOTSS2 CNERY BLH J169 TFD J50 SSO J4 INK GEEKY BOOVE7 |
| Aircraft | B77W/H-SDE1E2E3FGHIJ2J3J4J5M1RWXY/LB1D1 |
Departure
| Time | 2026-05-08 00:32 |
|---|---|
| Airport | Los Angeles International Airport (KLAX) |
Arrival
| Time | N/A |
|---|---|
| Airport | Dallas Fort Worth International Airport (KDFW) |
| Time | Latitude | Longitude | Altitude | Speed | Heading |
|---|---|---|---|---|---|
| 2026-05-08 00:15 | 33.94546 | -118.40978 | 125 ft | 0 kts | 263° |
| 2026-05-08 00:23 | 33.94546 | -118.40975 | 130 ft | 2 kts | 263° |
| 2026-05-08 00:23 | 33.94549 | -118.40953 | 128 ft | 3 kts | 263° |
| 2026-05-08 00:24 | 33.94551 | -118.40930 | 126 ft | 2 kts | 263° |
| 2026-05-08 00:24 | 33.94553 | -118.40913 | 125 ft | 3 kts | 274° |
| 2026-05-08 00:24 | 33.94549 | -118.40895 | 125 ft | 3 kts | 328° |
| 2026-05-08 00:24 | 33.94531 | -118.40888 | 125 ft | 3 kts | 355° |
| 2026-05-08 00:25 | 33.94527 | -118.40887 | 125 ft | 0 kts | 355° |
| 2026-05-08 00:26 | 33.94562 | -118.40892 | 126 ft | 18 kts | 354° |
| 2026-05-08 00:27 | 33.94696 | -118.40911 | 128 ft | 19 kts | 356° |
| 2026-05-08 00:27 | 33.94812 | -118.40873 | 126 ft | 17 kts | 38° |
| 2026-05-08 00:27 | 33.94851 | -118.40741 | 129 ft | 17 kts | 84° |
| 2026-05-08 00:27 | 33.94865 | -118.40599 | 127 ft | 17 kts | 82° |
| 2026-05-08 00:28 | 33.94883 | -118.40442 | 129 ft | 21 kts | 82° |
| 2026-05-08 00:28 | 33.94900 | -118.40263 | 127 ft | 22 kts | 83° |
| 2026-05-08 00:28 | 33.94918 | -118.40079 | 126 ft | 22 kts | 83° |
| 2026-05-08 00:28 | 33.94937 | -118.39960 | 128 ft | 9 kts | 65° |
| 2026-05-08 00:29 | 33.94943 | -118.39950 | 127 ft | 0 kts | 54° |
| 2026-05-08 00:30 | 33.94960 | -118.39934 | 125 ft | 9 kts | 32° |
| 2026-05-08 00:31 | 33.95026 | -118.39947 | 128 ft | 10 kts | 311° |
| 2026-05-08 00:31 | 33.95033 | -118.40034 | 126 ft | 11 kts | 261° |
| 2026-05-08 00:31 | 33.95015 | -118.40222 | 127 ft | 44 kts | 264° |
| 2026-05-08 00:31 | 33.94924 | -118.41001 | 131 ft | 140 kts | 263° |
| 2026-05-08 00:32 | 33.94782 | -118.42381 | 600 ft | 170 kts | 265° |
| 2026-05-08 00:32 | 33.94710 | -118.43824 | 1717 ft | 167 kts | 266° |
| 2026-05-08 00:32 | 33.94618 | -118.45290 | 2421 ft | 181 kts | 265° |
| 2026-05-08 00:32 | 33.94465 | -118.46837 | 3055 ft | 193 kts | 264° |
| 2026-05-08 00:33 | 33.94344 | -118.48560 | 3316 ft | 226 kts | 267° |
| 2026-05-08 00:33 | 33.94261 | -118.50567 | 3780 ft | 248 kts | 267° |
| 2026-05-08 00:33 | 33.94112 | -118.52678 | 4550 ft | 257 kts | 265° |
| 2026-05-08 00:33 | 33.93931 | -118.54838 | 4997 ft | 258 kts | 265° |
| 2026-05-08 00:34 | 33.93474 | -118.56919 | 5488 ft | 265 kts | 239° |
| 2026-05-08 00:34 | 33.92148 | -118.58448 | 6428 ft | 273 kts | 212° |
| 2026-05-08 00:34 | 33.90321 | -118.59192 | 7252 ft | 285 kts | 189° |
| 2026-05-08 00:34 | 33.88303 | -118.59063 | 8046 ft | 296 kts | 167° |
| 2026-05-08 00:35 | 33.86316 | -118.58356 | 8974 ft | 300 kts | 162° |
| 2026-05-08 00:35 | 33.84347 | -118.57583 | 9908 ft | 302 kts | 161° |
| 2026-05-08 00:35 | 33.82311 | -118.56783 | 10626 ft | 314 kts | 161° |
| 2026-05-08 00:35 | 33.80138 | -118.55943 | 10946 ft | 342 kts | 162° |
| 2026-05-08 00:36 | 33.77755 | -118.55043 | 11127 ft | 374 kts | 162° |
| 2026-05-08 00:36 | 33.75192 | -118.54094 | 11665 ft | 392 kts | 162° |
| 2026-05-08 00:36 | 33.72592 | -118.53074 | 12625 ft | 390 kts | 156° |
| 2026-05-08 00:36 | 33.70319 | -118.51263 | 13562 ft | 394 kts | 133° |
| 2026-05-08 00:37 | 33.68700 | -118.48665 | 14538 ft | 395 kts | 116° |
| 2026-05-08 00:37 | 33.67688 | -118.45601 | 15496 ft | 396 kts | 107° |
| 2026-05-08 00:37 | 33.66817 | -118.42432 | 16399 ft | 404 kts | 107° |
| 2026-05-08 00:38 | 33.65103 | -118.35910 | 18310 ft | 413 kts | 101° |
| 2026-05-08 00:38 | 33.64608 | -118.32489 | 19095 ft | 419 kts | 96° |
| 2026-05-08 00:38 | 33.64387 | -118.29026 | 19878 ft | 423 kts | 90° |
| 2026-05-08 00:38 | 33.64378 | -118.25477 | 20677 ft | 428 kts | 88° |
| 2026-05-08 00:39 | 33.64402 | -118.21878 | 21460 ft | 433 kts | 88° |
| 2026-05-08 00:39 | 33.64431 | -118.18239 | 22232 ft | 438 kts | 88° |
| 2026-05-08 00:39 | 33.64451 | -118.14556 | 22974 ft | 444 kts | 88° |
| 2026-05-08 00:39 | 33.64462 | -118.10826 | 23708 ft | 449 kts | 88° |
| 2026-05-08 00:40 | 33.64464 | -118.07041 | 24337 ft | 454 kts | 88° |
| 2026-05-08 00:40 | 33.64461 | -118.03245 | 24997 ft | 457 kts | 88° |
| 2026-05-08 00:40 | 33.64455 | -117.99456 | 25648 ft | 461 kts | 88° |
| 2026-05-08 00:40 | 33.64448 | -117.95577 | 26290 ft | 465 kts | 88° |
| 2026-05-08 00:41 | 33.64441 | -117.91685 | 26883 ft | 469 kts | 88° |
| 2026-05-08 00:41 | 33.64433 | -117.87745 | 27476 ft | 472 kts | 88° |
| 2026-05-08 00:41 | 33.64411 | -117.83821 | 28052 ft | 477 kts | 90° |
| 2026-05-08 00:41 | 33.64136 | -117.79831 | 28586 ft | 482 kts | 95° |
| 2026-05-08 00:42 | 33.63551 | -117.75829 | 29101 ft | 488 kts | 101° |
| 2026-05-08 00:42 | 33.62644 | -117.71895 | 29587 ft | 492 kts | 104° |
| 2026-05-08 00:42 | 33.61644 | -117.67943 | 30037 ft | 495 kts | 105° |
| 2026-05-08 00:42 | 33.60625 | -117.63969 | 30491 ft | 496 kts | 105° |
| 2026-05-08 00:43 | 33.59619 | -117.60017 | 31048 ft | 494 kts | 104° |
| 2026-05-08 00:43 | 33.58630 | -117.56085 | 31648 ft | 491 kts | 104° |
| 2026-05-08 00:43 | 33.57666 | -117.52213 | 32211 ft | 489 kts | 104° |
| 2026-05-08 00:43 | 33.56697 | -117.48303 | 32741 ft | 488 kts | 104° |
| 2026-05-08 00:44 | 33.55732 | -117.44406 | 33275 ft | 486 kts | 104° |
| 2026-05-08 00:44 | 33.54769 | -117.40520 | 33823 ft | 485 kts | 104° |
| 2026-05-08 00:44 | 33.53807 | -117.36648 | 34293 ft | 483 kts | 104° |
| 2026-05-08 00:44 | 33.52841 | -117.32771 | 34685 ft | 484 kts | 104° |
| 2026-05-08 00:45 | 33.51889 | -117.28955 | 35021 ft | 485 kts | 104° |
| 2026-05-08 00:45 | 33.51048 | -117.25044 | 35365 ft | 483 kts | 99° |
| 2026-05-08 00:45 | 33.50513 | -117.21067 | 35732 ft | 481 kts | 94° |
| 2026-05-08 00:45 | 33.50298 | -117.17066 | 36081 ft | 479 kts | 88° |
| 2026-05-08 00:46 | 33.50255 | -117.13118 | 36506 ft | 477 kts | 88° |
| 2026-05-08 00:46 | 33.50231 | -117.09147 | 36869 ft | 477 kts | 88° |
| 2026-05-08 00:46 | 33.50206 | -117.05165 | 37209 ft | 477 kts | 88° |
| 2026-05-08 00:46 | 33.50171 | -117.01187 | 37536 ft | 477 kts | 88° |
| 2026-05-08 00:47 | 33.50127 | -116.97287 | 37865 ft | 477 kts | 88° |
| 2026-05-08 00:47 | 33.50073 | -116.93320 | 38198 ft | 476 kts | 88° |
| 2026-05-08 00:47 | 33.50014 | -116.89350 | 38520 ft | 476 kts | 88° |
| 2026-05-08 00:47 | 33.49952 | -116.85373 | 38812 ft | 475 kts | 88° |
| 2026-05-08 00:48 | 33.49889 | -116.81464 | 38994 ft | 477 kts | 88° |
| 2026-05-08 00:48 | 33.49761 | -116.73476 | 38952 ft | 479 kts | 88° |
| 2026-05-08 00:49 | 33.49628 | -116.65576 | 38938 ft | 473 kts | 88° |
| 2026-05-08 00:49 | 33.49492 | -116.57686 | 38915 ft | 471 kts | 88° |
| 2026-05-08 00:50 | 33.49353 | -116.49863 | 38890 ft | 471 kts | 88° |
| 2026-05-08 00:50 | 33.49208 | -116.41998 | 38893 ft | 472 kts | 88° |
| 2026-05-08 00:51 | 33.49084 | -116.34136 | 38887 ft | 471 kts | 88° |
| 2026-05-08 00:51 | 33.48975 | -116.26242 | 38876 ft | 474 kts | 88° |
| 2026-05-08 00:52 | 33.48854 | -116.18366 | 38829 ft | 477 kts | 88° |
| 2026-05-08 00:52 | 33.48724 | -116.10389 | 38818 ft | 479 kts | 88° |
| 2026-05-08 00:53 | 33.49256 | -116.02479 | 38827 ft | 475 kts | 77° |
| 2026-05-08 00:53 | 33.50966 | -115.94979 | 38842 ft | 472 kts | 68° |
| 2026-05-08 00:54 | 33.53185 | -115.87621 | 38826 ft | 470 kts | 67° |
| 2026-05-08 00:54 | 33.55386 | -115.80258 | 38823 ft | 467 kts | 67° |
| 2026-05-08 00:55 | 33.57514 | -115.72969 | 38819 ft | 464 kts | 68° |
| 2026-05-08 00:55 | 33.59635 | -115.65672 | 38823 ft | 462 kts | 68° |
| 2026-05-08 00:56 | 33.61277 | -115.58188 | 38837 ft | 465 kts | 78° |
| 2026-05-08 00:56 | 33.61709 | -115.50416 | 38835 ft | 468 kts | 88° |
| 2026-05-08 00:57 | 33.61492 | -115.42641 | 38840 ft | 470 kts | 89° |
| 2026-05-08 00:57 | 33.61238 | -115.34789 | 38842 ft | 471 kts | 89° |
| 2026-05-08 00:58 | 33.61017 | -115.26910 | 38849 ft | 473 kts | 89° |
| 2026-05-08 00:58 | 33.60811 | -115.19030 | 38836 ft | 475 kts | 89° |
| 2026-05-08 00:59 | 33.60601 | -115.11157 | 38833 ft | 476 kts | 89° |
| 2026-05-08 00:59 | 33.60383 | -115.03199 | 38836 ft | 476 kts | 89° |
| 2026-05-08 01:00 | 33.60162 | -114.95357 | 38839 ft | 476 kts | 89° |
| 2026-05-08 01:00 | 33.59935 | -114.87470 | 38842 ft | 475 kts | 89° |
| 2026-05-08 01:01 | 33.59703 | -114.79556 | 38838 ft | 473 kts | 89° |
| 2026-05-08 01:01 | 33.59277 | -114.71725 | 38845 ft | 473 kts | 92° |
| 2026-05-08 01:02 | 33.58557 | -114.63854 | 38843 ft | 473 kts | 93° |
| 2026-05-08 01:02 | 33.57822 | -114.56049 | 38843 ft | 473 kts | 93° |
| 2026-05-08 01:03 | 33.57104 | -114.48211 | 38840 ft | 473 kts | 93° |
| 2026-05-08 01:03 | 33.56392 | -114.40362 | 38835 ft | 474 kts | 93° |
| 2026-05-08 01:04 | 33.55676 | -114.32503 | 38844 ft | 474 kts | 92° |
| 2026-05-08 01:04 | 33.54953 | -114.24639 | 38842 ft | 474 kts | 92° |
| 2026-05-08 01:05 | 33.54225 | -114.16798 | 38841 ft | 473 kts | 93° |
| 2026-05-08 01:05 | 33.53499 | -114.09013 | 38847 ft | 472 kts | 93° |
| 2026-05-08 01:06 | 33.52763 | -114.01173 | 38850 ft | 472 kts | 93° |
| 2026-05-08 01:06 | 33.52031 | -113.93434 | 38884 ft | 473 kts | 93° |
| 2026-05-08 01:07 | 33.51290 | -113.85640 | 38920 ft | 474 kts | 93° |
| 2026-05-08 01:07 | 33.50545 | -113.77773 | 38952 ft | 475 kts | 93° |
| 2026-05-08 01:08 | 33.49796 | -113.69904 | 38989 ft | 476 kts | 93° |
| 2026-05-08 01:08 | 33.49039 | -113.62005 | 39000 ft | 477 kts | 93° |
| 2026-05-08 01:09 | 33.48279 | -113.54139 | 38992 ft | 478 kts | 93° |
| 2026-05-08 01:09 | 33.47508 | -113.46202 | 38952 ft | 478 kts | 94° |
| 2026-05-08 01:10 | 33.46655 | -113.38327 | 38827 ft | 481 kts | 98° |
| 2026-05-08 01:10 | 33.44757 | -113.30603 | 38827 ft | 485 kts | 110° |